sensor_id;sensor_type;location;lat;lon;timestamp;P1;durP1;ratioP1;P2;durP2;ratioP2
68653;SDS011;55636;51.108;13.622;2022-10-16T00:00:02;13.80;;;12.35;;
68653;SDS011;55636;51.108;13.622;2022-10-16T00:01:09;14.52;;;13.02;;
68653;SDS011;55636;51.108;13.622;2022-10-16T00:02:14;15.15;;;13.23;;
68653;SDS011;55636;51.108;13.622;2022-10-16T00:03:16;15.13;;;13.60;;
68653;SDS011;55636;51.108;13.622;2022-10-16T00:04:18;13.70;;;12.20;;
68653;SDS011;55636;51.108;13.622;2022-10-16T00:05:20;14.35;;;12.85;;
68653;SDS011;55636;51.108;13.622;2022-10-16T00:06:23;15.07;;;13.25;;
68653;SDS011;55636;51.108;13.622;2022-10-16T00:07:26;14.95;;;13.25;;
68653;SDS011;55636;51.108;13.622;2022-10-16T00:08:29;14.23;;;12.63;;
68653;SDS011;55636;51.108;13.622;2022-10-16T00:09:32;14.98;;;13.35;;
68653;SDS011;55636;51.108;13.622;2022-10-16T00:10:35;15.52;;;13.70;;
68653;SDS011;55636;51.108;13.622;2022-10-16T00:11:38;16.25;;;13.57;;
68653;SDS011;55636;51.108;13.622;2022-10-16T00:12:41;15.65;;;13.40;;
68653;SDS011;55636;51.108;13.622;2022-10-16T00:13:44;14.40;;;12.82;;
68653;SDS011;55636;51.108;13.622;2022-10-16T00:14:48;14.75;;;13.15;;
68653;SDS011;55636;51.108;13.622;2022-10-16T00:15:50;14.60;;;13.10;;
68653;SDS011;55636;51.108;13.622;2022-10-16T00:16:53;14.35;;;12.85;;
68653;SDS011;55636;51.108;13.622;2022-10-16T00:17:57;15.13;;;13.25;;
68653;SDS011;55636;51.108;13.622;2022-10-16T00:19:00;14.45;;;12.90;;
68653;SDS011;55636;51.108;13.622;2022-10-16T00:20:02;13.95;;;12.30;;
68653;SDS011;55636;51.108;13.622;2022-10-16T00:21:06;13.57;;;12.18;;
68653;SDS011;55636;51.108;13.622;2022-10-16T00:22:10;14.85;;;13.32;;
68653;SDS011;55636;51.108;13.622;2022-10-16T00:23:12;14.07;;;12.57;;
68653;SDS011;55636;51.108;13.622;2022-10-16T00:24:21;13.80;;;12.38;;
68653;SDS011;55636;51.108;13.622;2022-10-16T00:25:24;14.80;;;12.52;;
68653;SDS011;55636;51.108;13.622;2022-10-16T00:26:28;14.02;;;12.52;;
68653;SDS011;55636;51.108;13.622;2022-10-16T00:27:34;14.32;;;12.80;;
68653;SDS011;55636;51.108;13.622;2022-10-16T00:28:37;13.95;;;12.55;;
68653;SDS011;55636;51.108;13.622;2022-10-16T00:29:40;14.30;;;12.80;;
68653;SDS011;55636;51.108;13.622;2022-10-16T00:30:42;14.18;;;12.68;;
68653;SDS011;55636;51.108;13.622;2022-10-16T00:31:44;13.52;;;12.13;;
68653;SDS011;55636;51.108;13.622;2022-10-16T00:32:47;14.20;;;12.60;;
68653;SDS011;55636;51.108;13.622;2022-10-16T00:33:49;13.98;;;12.50;;
68653;SDS011;55636;51.108;13.622;2022-10-16T00:34:52;15.32;;;12.15;;
68653;SDS011;55636;51.108;13.622;2022-10-16T00:36:00;13.90;;;12.30;;
68653;SDS011;55636;51.108;13.622;2022-10-16T00:37:06;14.43;;;12.57;;
68653;SDS011;55636;51.108;13.622;2022-10-16T00:38:09;15.27;;;12.90;;
68653;SDS011;55636;51.108;13.622;2022-10-16T00:39:11;14.18;;;12.70;;
68653;SDS011;55636;51.108;13.622;2022-10-16T00:40:14;13.80;;;12.40;;
68653;SDS011;55636;51.108;13.622;2022-10-16T00:41:18;14.18;;;12.43;;
68653;SDS011;55636;51.108;13.622;2022-10-16T00:42:21;14.48;;;12.52;;
68653;SDS011;55636;51.108;13.622;2022-10-16T00:45:47;13.95;;;12.52;;
68653;SDS011;55636;51.108;13.622;2022-10-16T00:46:49;13.45;;;12.05;;
68653;SDS011;55636;51.108;13.622;2022-10-16T00:47:53;13.15;;;11.85;;
68653;SDS011;55636;51.108;13.622;2022-10-16T00:49:02;14.80;;;12.18;;
68653;SDS011;55636;51.108;13.622;2022-10-16T00:51:25;13.68;;;12.27;;
68653;SDS011;55636;51.108;13.622;2022-10-16T00:52:32;13.05;;;11.75;;
68653;SDS011;55636;51.108;13.622;2022-10-16T00:53:35;14.10;;;12.32;;
68653;SDS011;55636;51.108;13.622;2022-10-16T00:54:38;13.85;;;12.45;;
68653;SDS011;55636;51.108;13.622;2022-10-16T00:55:40;13.13;;;11.82;;
68653;SDS011;55636;51.108;13.622;2022-10-16T00:56:43;13.10;;;11.80;;
68653;SDS011;55636;51.108;13.622;2022-10-16T00:57:48;13.15;;;11.75;;
68653;SDS011;55636;51.108;13.622;2022-10-16T00:58:54;13.82;;;11.80;;
68653;SDS011;55636;51.108;13.622;2022-10-16T00:59:56;15.13;;;12.50;;
68653;SDS011;55636;51.108;13.622;2022-10-16T01:01:03;13.68;;;12.27;;
68653;SDS011;55636;51.108;13.622;2022-10-16T01:02:24;14.45;;;12.68;;
68653;SDS011;55636;51.108;13.622;2022-10-16T01:03:38;13.98;;;12.57;;
68653;SDS011;55636;51.108;13.622;2022-10-16T01:04:53;13.60;;;11.93;;
68653;SDS011;55636;51.108;13.622;2022-10-16T01:06:21;14.20;;;12.45;;
68653;SDS011;55636;51.108;13.622;2022-10-16T01:09:17;13.20;;;11.80;;
68653;SDS011;55636;51.108;13.622;2022-10-16T01:10:31;14.38;;;12.88;;
68653;SDS011;55636;51.108;13.622;2022-10-16T01:13:18;13.55;;;12.05;;
68653;SDS011;55636;51.108;13.622;2022-10-16T01:16:17;13.02;;;11.70;;
68653;SDS011;55636;51.108;13.622;2022-10-16T01:17:39;13.90;;;12.20;;
68653;SDS011;55636;51.108;13.622;2022-10-16T01:18:48;13.73;;;12.25;;
68653;SDS011;55636;51.108;13.622;2022-10-16T01:21:41;15.27;;;12.00;;
68653;SDS011;55636;51.108;13.622;2022-10-16T01:22:59;14.15;;;12.23;;
68653;SDS011;55636;51.108;13.622;2022-10-16T01:24:31;14.27;;;12.77;;
68653;SDS011;55636;51.108;13.622;2022-10-16T01:27:06;13.98;;;11.73;;
68653;SDS011;55636;51.108;13.622;2022-10-16T01:28:09;13.52;;;12.13;;
68653;SDS011;55636;51.108;13.622;2022-10-16T01:29:16;14.02;;;12.57;;
68653;SDS011;55636;51.108;13.622;2022-10-16T01:30:24;13.18;;;11.88;;
68653;SDS011;55636;51.108;13.622;2022-10-16T01:31:31;13.52;;;12.13;;
68653;SDS011;55636;51.108;13.622;2022-10-16T01:33:47;13.27;;;11.98;;
68653;SDS011;55636;51.108;13.622;2022-10-16T01:36:28;13.15;;;11.85;;
68653;SDS011;55636;51.108;13.622;2022-10-16T01:37:54;13.60;;;12.25;;
68653;SDS011;55636;51.108;13.622;2022-10-16T01:39:00;13.18;;;11.77;;
68653;SDS011;55636;51.108;13.622;2022-10-16T01:40:05;13.80;;;12.40;;
68653;SDS011;55636;51.108;13.622;2022-10-16T01:42:19;13.73;;;12.32;;
68653;SDS011;55636;51.108;13.622;2022-10-16T01:43:30;13.65;;;12.25;;
68653;SDS011;55636;51.108;13.622;2022-10-16T01:44:38;14.27;;;12.05;;
68653;SDS011;55636;51.108;13.622;2022-10-16T01:45:45;13.32;;;11.93;;
68653;SDS011;55636;51.108;13.622;2022-10-16T01:46:48;14.13;;;11.98;;
68653;SDS011;55636;51.108;13.622;2022-10-16T01:47:54;13.63;;;11.75;;
68653;SDS011;55636;51.108;13.622;2022-10-16T01:49:00;13.23;;;11.68;;
68653;SDS011;55636;51.108;13.622;2022-10-16T01:50:04;13.43;;;11.75;;
68653;SDS011;55636;51.108;13.622;2022-10-16T01:51:10;12.60;;;11.30;;
68653;SDS011;55636;51.108;13.622;2022-10-16T01:52:16;13.25;;;11.93;;
68653;SDS011;55636;51.108;13.622;2022-10-16T01:53:22;12.93;;;11.63;;
68653;SDS011;55636;51.108;13.622;2022-10-16T01:54:27;12.45;;;11.20;;
68653;SDS011;55636;51.108;13.622;2022-10-16T01:55:35;12.68;;;11.38;;
68653;SDS011;55636;51.108;13.622;2022-10-16T01:56:40;12.32;;;11.00;;
68653;SDS011;55636;51.108;13.622;2022-10-16T01:57:44;12.02;;;10.93;;
68653;SDS011;55636;51.108;13.622;2022-10-16T01:59:02;11.95;;;10.75;;
68653;SDS011;55636;51.108;13.622;2022-10-16T02:00:09;12.15;;;10.95;;
68653;SDS011;55636;51.108;13.622;2022-10-16T02:01:13;11.10;;;10.00;;
68653;SDS011;55636;51.108;13.622;2022-10-16T02:02:18;11.70;;;10.50;;
68653;SDS011;55636;51.108;13.622;2022-10-16T02:03:24;11.45;;;10.18;;
68653;SDS011;55636;51.108;13.622;2022-10-16T02:05:33;13.48;;;11.02;;
68653;SDS011;55636;51.108;13.622;2022-10-16T02:06:42;11.13;;;10.00;;
68653;SDS011;55636;51.108;13.622;2022-10-16T02:07:45;11.93;;;10.57;;
68653;SDS011;55636;51.108;13.622;2022-10-16T02:08:47;11.30;;;10.20;;
68653;SDS011;55636;51.108;13.622;2022-10-16T02:09:49;10.90;;;9.77;;
68653;SDS011;55636;51.108;13.622;2022-10-16T02:10:52;10.40;;;9.30;;
68653;SDS011;55636;51.108;13.622;2022-10-16T02:11:54;10.73;;;9.73;;
68653;SDS011;55636;51.108;13.622;2022-10-16T02:13:03;11.25;;;10.10;;
68653;SDS011;55636;51.108;13.622;2022-10-16T02:14:12;10.88;;;9.75;;
68653;SDS011;55636;51.108;13.622;2022-10-16T02:15:15;10.73;;;9.63;;
68653;SDS011;55636;51.108;13.622;2022-10-16T02:16:18;11.13;;;9.65;;
68653;SDS011;55636;51.108;13.622;2022-10-16T02:17:20;10.73;;;9.63;;
68653;SDS011;55636;51.108;13.622;2022-10-16T02:18:23;10.65;;;9.60;;
68653;SDS011;55636;51.108;13.622;2022-10-16T02:19:28;10.70;;;9.60;;
68653;SDS011;55636;51.108;13.622;2022-10-16T02:20:32;10.20;;;9.20;;
68653;SDS011;55636;51.108;13.622;2022-10-16T02:22:56;9.88;;;8.85;;
68653;SDS011;55636;51.108;13.622;2022-10-16T02:25:29;9.50;;;8.48;;
68653;SDS011;55636;51.108;13.622;2022-10-16T02:28:16;10.00;;;9.10;;
68653;SDS011;55636;51.108;13.622;2022-10-16T02:29:29;10.27;;;9.27;;
68653;SDS011;55636;51.108;13.622;2022-10-16T02:30:38;9.90;;;8.90;;
68653;SDS011;55636;51.108;13.622;2022-10-16T02:31:45;11.52;;;9.57;;
68653;SDS011;55636;51.108;13.622;2022-10-16T02:32:51;10.68;;;9.48;;
68653;SDS011;55636;51.108;13.622;2022-10-16T02:33:56;9.75;;;8.85;;
68653;SDS011;55636;51.108;13.622;2022-10-16T02:35:00;9.98;;;9.07;;
68653;SDS011;55636;51.108;13.622;2022-10-16T02:36:04;9.88;;;8.88;;
68653;SDS011;55636;51.108;13.622;2022-10-16T02:37:07;10.63;;;8.85;;
68653;SDS011;55636;51.108;13.622;2022-10-16T02:38:14;9.85;;;8.85;;
68653;SDS011;55636;51.108;13.622;2022-10-16T02:39:18;10.05;;;9.05;;
68653;SDS011;55636;51.108;13.622;2022-10-16T02:40:22;9.90;;;9.00;;
68653;SDS011;55636;51.108;13.622;2022-10-16T02:41:26;10.05;;;8.98;;
68653;SDS011;55636;51.108;13.622;2022-10-16T02:42:35;10.07;;;9.07;;
68653;SDS011;55636;51.108;13.622;2022-10-16T02:43:38;10.15;;;9.18;;
68653;SDS011;55636;51.108;13.622;2022-10-16T02:44:44;10.70;;;9.60;;
68653;SDS011;55636;51.108;13.622;2022-10-16T02:45:46;10.85;;;9.75;;
68653;SDS011;55636;51.108;13.622;2022-10-16T02:46:51;11.00;;;9.90;;
68653;SDS011;55636;51.108;13.622;2022-10-16T02:47:53;11.40;;;9.30;;
68653;SDS011;55636;51.108;13.622;2022-10-16T02:48:55;10.95;;;9.75;;
68653;SDS011;55636;51.108;13.622;2022-10-16T02:49:57;9.95;;;9.05;;
68653;SDS011;55636;51.108;13.622;2022-10-16T02:50:59;11.15;;;9.93;;
68653;SDS011;55636;51.108;13.622;2022-10-16T02:52:02;11.05;;;9.93;;
68653;SDS011;55636;51.108;13.622;2022-10-16T02:53:04;11.07;;;9.98;;
68653;SDS011;55636;51.108;13.622;2022-10-16T02:54:07;9.95;;;8.98;;
68653;SDS011;55636;51.108;13.622;2022-10-16T02:55:09;10.38;;;9.38;;
68653;SDS011;55636;51.108;13.622;2022-10-16T02:56:11;10.82;;;9.75;;
68653;SDS011;55636;51.108;13.622;2022-10-16T02:57:14;11.02;;;9.93;;
68653;SDS011;55636;51.108;13.622;2022-10-16T02:58:16;11.23;;;10.07;;
68653;SDS011;55636;51.108;13.622;2022-10-16T02:59:19;11.55;;;10.45;;
68653;SDS011;55636;51.108;13.622;2022-10-16T03:00:21;11.75;;;10.57;;
68653;SDS011;55636;51.108;13.622;2022-10-16T03:01:24;11.88;;;10.68;;
68653;SDS011;55636;51.108;13.622;2022-10-16T03:02:26;12.77;;;10.80;;
68653;SDS011;55636;51.108;13.622;2022-10-16T03:03:29;12.27;;;11.07;;
68653;SDS011;55636;51.108;13.622;2022-10-16T03:04:31;13.10;;;11.70;;
68653;SDS011;55636;51.108;13.622;2022-10-16T03:05:33;12.00;;;10.80;;
68653;SDS011;55636;51.108;13.622;2022-10-16T03:06:35;12.98;;;11.57;;
68653;SDS011;55636;51.108;13.622;2022-10-16T03:07:38;12.05;;;10.88;;
68653;SDS011;55636;51.108;13.622;2022-10-16T03:08:40;13.35;;;11.35;;
68653;SDS011;55636;51.108;13.622;2022-10-16T03:09:42;12.98;;;11.70;;
68653;SDS011;55636;51.108;13.622;2022-10-16T03:10:45;12.27;;;10.98;;
68653;SDS011;55636;51.108;13.622;2022-10-16T03:11:47;13.90;;;11.38;;
68653;SDS011;55636;51.108;13.622;2022-10-16T03:12:49;12.13;;;10.93;;
68653;SDS011;55636;51.108;13.622;2022-10-16T03:13:52;12.85;;;11.20;;
68653;SDS011;55636;51.108;13.622;2022-10-16T03:14:55;12.20;;;10.90;;
68653;SDS011;55636;51.108;13.622;2022-10-16T03:16:01;12.70;;;11.40;;
68653;SDS011;55636;51.108;13.622;2022-10-16T03:17:03;11.60;;;10.50;;
68653;SDS011;55636;51.108;13.622;2022-10-16T03:18:13;12.60;;;11.35;;
68653;SDS011;55636;51.108;13.622;2022-10-16T03:19:17;12.43;;;11.23;;
68653;SDS011;55636;51.108;13.622;2022-10-16T03:20:19;12.65;;;11.30;;
68653;SDS011;55636;51.108;13.622;2022-10-16T03:21:24;11.90;;;10.73;;
68653;SDS011;55636;51.108;13.622;2022-10-16T03:22:26;13.38;;;11.48;;
68653;SDS011;55636;51.108;13.622;2022-10-16T03:23:29;12.30;;;11.10;;
68653;SDS011;55636;51.108;13.622;2022-10-16T03:24:51;12.63;;;11.32;;
68653;SDS011;55636;51.108;13.622;2022-10-16T03:25:54;12.13;;;10.98;;
68653;SDS011;55636;51.108;13.622;2022-10-16T03:26:56;11.93;;;10.73;;
68653;SDS011;55636;51.108;13.622;2022-10-16T03:27:59;12.65;;;11.45;;
68653;SDS011;55636;51.108;13.622;2022-10-16T03:29:02;14.00;;;11.90;;
68653;SDS011;55636;51.108;13.622;2022-10-16T03:30:05;12.23;;;11.02;;
68653;SDS011;55636;51.108;13.622;2022-10-16T03:31:08;13.05;;;11.75;;
68653;SDS011;55636;51.108;13.622;2022-10-16T03:32:10;12.85;;;11.55;;
68653;SDS011;55636;51.108;13.622;2022-10-16T03:33:13;12.80;;;11.50;;
68653;SDS011;55636;51.108;13.622;2022-10-16T03:34:15;13.95;;;12.38;;
68653;SDS011;55636;51.108;13.622;2022-10-16T03:35:17;13.30;;;11.95;;
68653;SDS011;55636;51.108;13.622;2022-10-16T03:36:19;12.98;;;11.68;;
68653;SDS011;55636;51.108;13.622;2022-10-16T03:37:22;13.50;;;12.10;;
68653;SDS011;55636;51.108;13.622;2022-10-16T03:38:24;12.95;;;11.65;;
68653;SDS011;55636;51.108;13.622;2022-10-16T03:39:27;13.85;;;12.50;;
68653;SDS011;55636;51.108;13.622;2022-10-16T03:40:29;13.57;;;12.18;;
68653;SDS011;55636;51.108;13.622;2022-10-16T03:41:34;12.98;;;11.68;;
68653;SDS011;55636;51.108;13.622;2022-10-16T03:42:39;13.35;;;12.05;;
68653;SDS011;55636;51.108;13.622;2022-10-16T03:43:41;12.73;;;11.43;;
68653;SDS011;55636;51.108;13.622;2022-10-16T03:44:43;13.65;;;12.35;;
68653;SDS011;55636;51.108;13.622;2022-10-16T03:45:45;13.38;;;12.07;;
68653;SDS011;55636;51.108;13.622;2022-10-16T03:46:48;13.43;;;12.15;;
68653;SDS011;55636;51.108;13.622;2022-10-16T03:47:50;13.10;;;11.80;;
68653;SDS011;55636;51.108;13.622;2022-10-16T03:48:52;12.95;;;11.65;;
68653;SDS011;55636;51.108;13.622;2022-10-16T03:49:54;13.63;;;12.20;;
68653;SDS011;55636;51.108;13.622;2022-10-16T03:50:57;13.95;;;12.55;;
68653;SDS011;55636;51.108;13.622;2022-10-16T03:51:59;14.00;;;12.65;;
68653;SDS011;55636;51.108;13.622;2022-10-16T03:53:02;14.18;;;12.60;;
68653;SDS011;55636;51.108;13.622;2022-10-16T03:54:05;13.63;;;12.23;;
68653;SDS011;55636;51.108;13.622;2022-10-16T03:55:07;14.48;;;13.02;;
68653;SDS011;55636;51.108;13.622;2022-10-16T03:56:10;13.43;;;12.13;;
68653;SDS011;55636;51.108;13.622;2022-10-16T03:57:12;14.23;;;12.73;;
68653;SDS011;55636;51.108;13.622;2022-10-16T03:58:17;13.20;;;11.90;;
68653;SDS011;55636;51.108;13.622;2022-10-16T03:59:21;13.88;;;12.57;;
68653;SDS011;55636;51.108;13.622;2022-10-16T04:00:24;13.45;;;12.13;;
68653;SDS011;55636;51.108;13.622;2022-10-16T04:01:26;13.35;;;11.95;;
68653;SDS011;55636;51.108;13.622;2022-10-16T04:02:31;13.18;;;11.90;;
68653;SDS011;55636;51.108;13.622;2022-10-16T04:03:34;13.55;;;12.20;;
68653;SDS011;55636;51.108;13.622;2022-10-16T04:04:36;13.13;;;11.73;;
68653;SDS011;55636;51.108;13.622;2022-10-16T04:05:38;13.20;;;11.85;;
68653;SDS011;55636;51.108;13.622;2022-10-16T04:06:41;12.93;;;11.68;;
68653;SDS011;55636;51.108;13.622;2022-10-16T04:07:43;12.73;;;11.52;;
68653;SDS011;55636;51.108;13.622;2022-10-16T04:08:46;12.40;;;11.20;;
68653;SDS011;55636;51.108;13.622;2022-10-16T04:09:48;13.00;;;11.70;;
68653;SDS011;55636;51.108;13.622;2022-10-16T04:10:51;13.30;;;12.05;;
68653;SDS011;55636;51.108;13.622;2022-10-16T04:11:53;12.25;;;11.13;;
68653;SDS011;55636;51.108;13.622;2022-10-16T04:12:56;12.35;;;11.15;;
68653;SDS011;55636;51.108;13.622;2022-10-16T04:13:58;12.55;;;11.25;;
68653;SDS011;55636;51.108;13.622;2022-10-16T04:15:00;12.43;;;11.27;;
68653;SDS011;55636;51.108;13.622;2022-10-16T04:16:03;13.35;;;11.35;;
68653;SDS011;55636;51.108;13.622;2022-10-16T04:17:05;12.55;;;11.27;;
68653;SDS011;55636;51.108;13.622;2022-10-16T04:18:08;12.50;;;11.20;;
68653;SDS011;55636;51.108;13.622;2022-10-16T04:19:13;12.48;;;11.27;;
68653;SDS011;55636;51.108;13.622;2022-10-16T04:20:15;12.05;;;10.85;;
68653;SDS011;55636;51.108;13.622;2022-10-16T04:21:18;12.13;;;10.93;;
68653;SDS011;55636;51.108;13.622;2022-10-16T04:22:20;12.00;;;10.80;;
68653;SDS011;55636;51.108;13.622;2022-10-16T04:23:23;12.45;;;11.15;;
68653;SDS011;55636;51.108;13.622;2022-10-16T04:24:25;11.35;;;10.35;;
68653;SDS011;55636;51.108;13.622;2022-10-16T04:25:28;12.35;;;11.05;;
68653;SDS011;55636;51.108;13.622;2022-10-16T04:26:30;11.82;;;10.63;;
68653;SDS011;55636;51.108;13.622;2022-10-16T04:27:32;13.23;;;11.70;;
68653;SDS011;55636;51.108;13.622;2022-10-16T04:28:35;11.52;;;10.43;;
68653;SDS011;55636;51.108;13.622;2022-10-16T04:29:37;12.25;;;11.05;;
68653;SDS011;55636;51.108;13.622;2022-10-16T04:30:39;12.20;;;11.00;;
68653;SDS011;55636;51.108;13.622;2022-10-16T04:31:41;11.57;;;10.45;;
68653;SDS011;55636;51.108;13.622;2022-10-16T04:32:47;12.40;;;11.15;;
68653;SDS011;55636;51.108;13.622;2022-10-16T04:33:50;11.32;;;10.15;;
68653;SDS011;55636;51.108;13.622;2022-10-16T04:34:52;12.55;;;11.25;;
68653;SDS011;55636;51.108;13.622;2022-10-16T04:35:58;11.80;;;10.65;;
68653;SDS011;55636;51.108;13.622;2022-10-16T04:37:01;12.20;;;11.00;;
68653;SDS011;55636;51.108;13.622;2022-10-16T04:38:04;12.50;;;11.30;;
68653;SDS011;55636;51.108;13.622;2022-10-16T04:39:06;11.65;;;10.55;;
68653;SDS011;55636;51.108;13.622;2022-10-16T04:40:08;12.10;;;10.85;;
68653;SDS011;55636;51.108;13.622;2022-10-16T04:41:11;11.63;;;10.52;;
68653;SDS011;55636;51.108;13.622;2022-10-16T04:42:13;11.57;;;10.48;;
68653;SDS011;55636;51.108;13.622;2022-10-16T04:43:16;11.95;;;10.73;;
68653;SDS011;55636;51.108;13.622;2022-10-16T04:44:18;12.00;;;10.75;;
68653;SDS011;55636;51.108;13.622;2022-10-16T04:45:20;12.15;;;10.90;;
68653;SDS011;55636;51.108;13.622;2022-10-16T04:46:23;13.27;;;10.85;;
68653;SDS011;55636;51.108;13.622;2022-10-16T04:47:32;12.20;;;11.10;;
68653;SDS011;55636;51.108;13.622;2022-10-16T04:48:34;12.27;;;11.07;;
68653;SDS011;55636;51.108;13.622;2022-10-16T04:49:37;12.10;;;10.98;;
68653;SDS011;55636;51.108;13.622;2022-10-16T04:50:39;11.93;;;10.82;;
68653;SDS011;55636;51.108;13.622;2022-10-16T04:51:41;12.38;;;11.25;;
68653;SDS011;55636;51.108;13.622;2022-10-16T04:52:43;12.48;;;11.27;;
68653;SDS011;55636;51.108;13.622;2022-10-16T04:53:46;12.93;;;11.07;;
68653;SDS011;55636;51.108;13.622;2022-10-16T04:54:48;12.35;;;11.15;;
68653;SDS011;55636;51.108;13.622;2022-10-16T04:55:52;12.13;;;10.93;;
68653;SDS011;55636;51.108;13.622;2022-10-16T04:56:54;11.80;;;10.70;;
68653;SDS011;55636;51.108;13.622;2022-10-16T04:57:56;12.00;;;10.90;;
68653;SDS011;55636;51.108;13.622;2022-10-16T04:58:59;13.18;;;11.88;;
68653;SDS011;55636;51.108;13.622;2022-10-16T05:00:01;12.93;;;11.57;;
68653;SDS011;55636;51.108;13.622;2022-10-16T05:01:05;12.60;;;11.40;;
68653;SDS011;55636;51.108;13.622;2022-10-16T05:02:07;12.77;;;11.13;;
68653;SDS011;55636;51.108;13.622;2022-10-16T05:03:09;12.23;;;11.05;;
68653;SDS011;55636;51.108;13.622;2022-10-16T05:04:12;12.32;;;11.15;;
68653;SDS011;55636;51.108;13.622;2022-10-16T05:05:17;13.10;;;11.85;;
68653;SDS011;55636;51.108;13.622;2022-10-16T05:06:21;12.98;;;11.68;;
68653;SDS011;55636;51.108;13.622;2022-10-16T05:07:23;13.13;;;11.77;;
68653;SDS011;55636;51.108;13.622;2022-10-16T05:08:26;12.73;;;11.50;;
68653;SDS011;55636;51.108;13.622;2022-10-16T05:09:28;12.27;;;11.07;;
68653;SDS011;55636;51.108;13.622;2022-10-16T05:10:30;12.93;;;11.43;;
68653;SDS011;55636;51.108;13.622;2022-10-16T05:11:32;12.95;;;11.75;;
68653;SDS011;55636;51.108;13.622;2022-10-16T05:12:35;12.52;;;11.23;;
68653;SDS011;55636;51.108;13.622;2022-10-16T05:13:37;12.23;;;11.02;;
68653;SDS011;55636;51.108;13.622;2022-10-16T05:14:39;13.00;;;11.40;;
68653;SDS011;55636;51.108;13.622;2022-10-16T05:15:41;13.05;;;11.75;;
68653;SDS011;55636;51.108;13.622;2022-10-16T05:16:44;13.80;;;12.50;;
68653;SDS011;55636;51.108;13.622;2022-10-16T05:17:51;12.93;;;11.70;;
68653;SDS011;55636;51.108;13.622;2022-10-16T05:18:54;13.10;;;11.30;;
68653;SDS011;55636;51.108;13.622;2022-10-16T05:20:11;12.30;;;11.10;;
68653;SDS011;55636;51.108;13.622;2022-10-16T05:21:13;12.38;;;11.18;;
68653;SDS011;55636;51.108;13.622;2022-10-16T05:22:16;12.65;;;11.32;;
68653;SDS011;55636;51.108;13.622;2022-10-16T05:23:18;12.50;;;11.15;;
68653;SDS011;55636;51.108;13.622;2022-10-16T05:24:20;11.70;;;10.60;;
68653;SDS011;55636;51.108;13.622;2022-10-16T05:25:25;12.05;;;10.88;;
68653;SDS011;55636;51.108;13.622;2022-10-16T05:26:28;12.50;;;11.30;;
68653;SDS011;55636;51.108;13.622;2022-10-16T05:27:30;12.73;;;11.43;;
68653;SDS011;55636;51.108;13.622;2022-10-16T05:28:33;12.57;;;11.38;;
68653;SDS011;55636;51.108;13.622;2022-10-16T05:29:36;12.23;;;11.02;;
68653;SDS011;55636;51.108;13.622;2022-10-16T05:30:38;13.10;;;11.77;;
68653;SDS011;55636;51.108;13.622;2022-10-16T05:31:41;12.40;;;11.20;;
68653;SDS011;55636;51.108;13.622;2022-10-16T05:32:50;14.32;;;11.02;;
68653;SDS011;55636;51.108;13.622;2022-10-16T05:33:57;13.07;;;11.77;;
68653;SDS011;55636;51.108;13.622;2022-10-16T05:35:03;13.27;;;12.05;;
68653;SDS011;55636;51.108;13.622;2022-10-16T05:36:10;12.93;;;11.73;;
68653;SDS011;55636;51.108;13.622;2022-10-16T05:37:13;13.10;;;11.75;;
68653;SDS011;55636;51.108;13.622;2022-10-16T05:38:16;12.25;;;11.07;;
68653;SDS011;55636;51.108;13.622;2022-10-16T05:39:19;12.00;;;10.90;;
68653;SDS011;55636;51.108;13.622;2022-10-16T05:40:21;12.52;;;11.32;;
68653;SDS011;55636;51.108;13.622;2022-10-16T05:41:24;12.35;;;11.15;;
68653;SDS011;55636;51.108;13.622;2022-10-16T05:42:28;11.98;;;10.77;;
68653;SDS011;55636;51.108;13.622;2022-10-16T05:43:34;12.75;;;11.55;;
68653;SDS011;55636;51.108;13.622;2022-10-16T05:44:36;11.80;;;10.70;;
68653;SDS011;55636;51.108;13.622;2022-10-16T05:45:38;11.88;;;10.77;;
68653;SDS011;55636;51.108;13.622;2022-10-16T05:46:40;12.00;;;10.75;;
68653;SDS011;55636;51.108;13.622;2022-10-16T05:47:43;12.40;;;11.10;;
68653;SDS011;55636;51.108;13.622;2022-10-16T05:48:45;12.02;;;10.82;;
68653;SDS011;55636;51.108;13.622;2022-10-16T05:49:47;12.13;;;11.02;;
68653;SDS011;55636;51.108;13.622;2022-10-16T05:51:11;12.05;;;10.93;;
68653;SDS011;55636;51.108;13.622;2022-10-16T05:52:13;12.02;;;10.80;;
68653;SDS011;55636;51.108;13.622;2022-10-16T05:53:15;11.85;;;10.65;;
68653;SDS011;55636;51.108;13.622;2022-10-16T05:54:18;12.75;;;11.45;;
68653;SDS011;55636;51.108;13.622;2022-10-16T05:55:20;12.32;;;11.05;;
68653;SDS011;55636;51.108;13.622;2022-10-16T05:56:22;12.68;;;11.43;;
68653;SDS011;55636;51.108;13.622;2022-10-16T05:57:25;12.38;;;11.18;;
68653;SDS011;55636;51.108;13.622;2022-10-16T05:58:31;12.85;;;11.65;;
68653;SDS011;55636;51.108;13.622;2022-10-16T05:59:35;12.43;;;11.07;;
68653;SDS011;55636;51.108;13.622;2022-10-16T06:00:38;12.75;;;11.55;;
68653;SDS011;55636;51.108;13.622;2022-10-16T06:01:40;12.10;;;10.90;;
68653;SDS011;55636;51.108;13.622;2022-10-16T06:02:43;12.10;;;10.90;;
68653;SDS011;55636;51.108;13.622;2022-10-16T06:03:45;12.40;;;11.23;;
68653;SDS011;55636;51.108;13.622;2022-10-16T06:04:47;12.93;;;11.73;;
68653;SDS011;55636;51.108;13.622;2022-10-16T06:05:50;12.98;;;11.68;;
68653;SDS011;55636;51.108;13.622;2022-10-16T06:06:53;12.48;;;11.27;;
68653;SDS011;55636;51.108;13.622;2022-10-16T06:07:55;11.77;;;10.75;;
68653;SDS011;55636;51.108;13.622;2022-10-16T06:09:00;12.13;;;10.80;;
68653;SDS011;55636;51.108;13.622;2022-10-16T06:10:08;12.65;;;11.45;;
68653;SDS011;55636;51.108;13.622;2022-10-16T06:11:13;13.10;;;11.90;;
68653;SDS011;55636;51.108;13.622;2022-10-16T06:12:19;12.63;;;11.30;;
68653;SDS011;55636;51.108;13.622;2022-10-16T06:13:21;12.70;;;11.40;;
68653;SDS011;55636;51.108;13.622;2022-10-16T06:14:23;12.77;;;11.57;;
68653;SDS011;55636;51.108;13.622;2022-10-16T06:15:26;12.98;;;11.68;;
68653;SDS011;55636;51.108;13.622;2022-10-16T06:16:28;13.55;;;11.60;;
68653;SDS011;55636;51.108;13.622;2022-10-16T06:17:33;12.65;;;11.40;;
68653;SDS011;55636;51.108;13.622;2022-10-16T06:18:36;13.23;;;11.93;;
68653;SDS011;55636;51.108;13.622;2022-10-16T06:19:39;12.80;;;11.60;;
68653;SDS011;55636;51.108;13.622;2022-10-16T06:20:41;12.07;;;10.93;;
68653;SDS011;55636;51.108;13.622;2022-10-16T06:21:43;12.15;;;11.05;;
68653;SDS011;55636;51.108;13.622;2022-10-16T06:22:46;13.13;;;11.93;;
68653;SDS011;55636;51.108;13.622;2022-10-16T06:23:48;12.93;;;11.68;;
68653;SDS011;55636;51.108;13.622;2022-10-16T06:24:50;12.77;;;11.57;;
68653;SDS011;55636;51.108;13.622;2022-10-16T06:25:53;12.45;;;11.23;;
68653;SDS011;55636;51.108;13.622;2022-10-16T06:26:55;12.75;;;11.45;;
68653;SDS011;55636;51.108;13.622;2022-10-16T06:27:57;12.60;;;11.30;;
68653;SDS011;55636;51.108;13.622;2022-10-16T06:28:59;12.63;;;11.40;;
68653;SDS011;55636;51.108;13.622;2022-10-16T06:30:02;11.82;;;10.77;;
68653;SDS011;55636;51.108;13.622;2022-10-16T06:31:06;12.82;;;11.60;;
68653;SDS011;55636;51.108;13.622;2022-10-16T06:32:09;12.70;;;11.40;;